Time;durP1;ratioP1;P1;durP2;ratioP2;P2;SDS_P1;SDS_P2;PMS_P1;PMS_P2;Temp;Humidity;BMP_temperature;BMP_pressure;BME280_temperature;BME280_humidity;BME280_pressure;Samples;Min_cycle;Max_cycle;Signal;HPM_P1;HPM_P2
2023/05/10 00:00:18;;;;;;;2.35;1.73;;;13.70;99.90;;;;;;6199912;28;20050;-77
2023/05/10 00:03:20;;;;;;;1.95;1.40;;;13.70;99.90;;;;;;6200268;28;20043;-76
2023/05/10 00:06:23;;;;;;;1.98;1.60;;;13.70;99.90;;;;;;6200266;28;20046;-77
2023/05/10 00:09:25;;;;;;;2.55;1.50;;;13.70;99.90;;;;;;6200481;28;20125;-77
2023/05/10 00:12:26;;;;;;;3.22;1.50;;;13.70;99.90;;;;;;6200015;28;20425;-76
2023/05/10 00:15:30;;;;;;;3.38;1.45;;;13.70;99.90;;;;;;6200331;28;20053;-77
2023/05/10 00:18:32;;;;;;;3.42;2.15;;;13.70;99.90;;;;;;6199370;28;20128;-77
2023/05/10 00:21:35;;;;;;;3.20;1.38;;;13.70;99.90;;;;;;6200248;28;20054;-77
2023/05/10 00:24:36;;;;;;;4.10;2.00;;;13.70;99.90;;;;;;6211149;28;20046;-76
2023/05/10 00:27:38;;;;;;;1.88;1.40;;;13.70;99.90;;;;;;6207680;28;20528;-77
2023/05/10 00:30:40;;;;;;;1.90;1.50;;;13.70;99.90;;;;;;6199542;28;20097;-77
2023/05/10 00:33:41;;;;;;;3.10;1.63;;;13.70;99.90;;;;;;6199466;28;20050;-77
2023/05/10 00:36:44;;;;;;;2.70;1.75;;;13.70;99.90;;;;;;6199598;28;20709;-76
2023/05/10 00:39:46;;;;;;;1.63;1.52;;;13.70;99.90;;;;;;6200516;28;20169;-77
2023/05/10 00:42:47;;;;;;;5.45;2.40;;;13.60;99.90;;;;;;6222676;28;20049;-77
2023/05/10 00:45:50;;;;;;;2.45;2.20;;;13.60;99.90;;;;;;6222328;28;20042;-76
2023/05/10 00:48:52;;;;;;;5.30;2.83;;;13.60;99.90;;;;;;6217002;28;20057;-77
2023/05/10 00:51:55;;;;;;;4.28;1.70;;;13.70;99.90;;;;;;6199451;28;20050;-76
2023/05/10 00:54:57;;;;;;;1.92;1.80;;;13.70;99.90;;;;;;6198528;28;20050;-77
2023/05/10 00:57:59;;;;;;;4.35;2.35;;;13.70;99.90;;;;;;6198682;28;20096;-76
2023/05/10 01:01:02;;;;;;;2.85;2.17;;;13.70;99.90;;;;;;6198976;28;20042;-76
2023/05/10 01:04:04;;;;;;;2.13;1.85;;;13.60;99.90;;;;;;6198118;28;20528;-76
2023/05/10 01:07:07;;;;;;;2.90;2.25;;;13.70;99.90;;;;;;6198652;28;20043;-76
2023/05/10 01:10:10;;;;;;;6.65;2.88;;;13.70;99.90;;;;;;6198646;28;20050;-76
2023/05/10 01:13:13;;;;;;;2.85;2.55;;;13.70;99.90;;;;;;6197853;28;20456;-75
2023/05/10 01:16:15;;;;;;;2.53;2.20;;;13.70;99.90;;;;;;6198391;28;20050;-76
2023/05/10 01:19:22;;;;;;;3.50;2.67;;;13.70;99.90;;;;;;6198827;28;20089;-76
2023/05/10 01:22:52;;;;;;;3.95;2.40;;;13.70;99.90;;;;;;6198627;28;20053;-76
2023/05/10 01:26:14;;;;;;;2.85;2.65;;;13.70;99.90;;;;;;6198114;28;20050;-76
2023/05/10 01:29:56;;;;;;;3.45;3.15;;;13.70;99.90;;;;;;6198538;28;20501;-76
2023/05/10 01:33:08;;;;;;;3.00;2.70;;;13.70;99.90;;;;;;6197828;28;20054;-76
2023/05/10 01:36:16;;;;;;;3.70;3.25;;;13.60;99.90;;;;;;6198464;28;20053;-76
2023/05/10 01:39:24;;;;;;;3.95;3.55;;;13.60;99.90;;;;;;6198323;28;20420;-77
2023/05/10 01:42:27;;;;;;;;;;;13.60;99.90;;;;;;6198450;28;20050;-76
2023/05/10 01:45:34;;;;;;;3.97;3.60;;;13.60;99.90;;;;;;6197759;28;19928;-77
2023/05/10 01:48:38;;;;;;;4.65;3.00;;;13.60;99.90;;;;;;6198098;28;20049;-76
2023/05/10 01:52:00;;;;;;;5.10;3.70;;;13.60;99.90;;;;;;6198133;28;20061;-76
2023/05/10 01:55:05;;;;;;;7.13;3.75;;;13.60;99.90;;;;;;6197046;28;20051;-77
2023/05/10 01:58:10;;;;;;;4.30;3.40;;;13.60;99.90;;;;;;6197622;28;20050;-77
2023/05/10 02:01:13;;;;;;;5.13;3.20;;;13.70;99.90;;;;;;6197612;28;20450;-77
2023/05/10 02:04:18;;;;;;;5.43;3.33;;;13.70;99.90;;;;;;6197182;28;20425;-76
2023/05/10 02:07:21;;;;;;;5.38;4.22;;;13.70;99.90;;;;;;6197881;28;20521;-77
2023/05/10 02:10:22;;;;;;;4.93;4.07;;;13.70;99.90;;;;;;6196848;28;20050;-76
2023/05/10 02:13:26;;;;;;;8.05;5.25;;;13.70;99.90;;;;;;6197179;28;20050;-77
2023/05/10 02:16:30;;;;;;;5.00;4.43;;;13.70;99.90;;;;;;6197174;28;20046;-76
2023/05/10 02:19:35;;;;;;;6.05;4.30;;;13.70;99.90;;;;;;6197736;28;20508;-76
2023/05/10 02:22:37;;;;;;;5.55;5.00;;;13.70;99.90;;;;;;6196905;28;20680;-76
2023/05/10 02:25:40;;;;;;;13.13;4.68;;;13.70;99.90;;;;;;6197143;28;20053;-77
2023/05/10 02:28:43;;;;;;;7.05;4.78;;;13.80;99.90;;;;;;6196789;28;20524;-77
2023/05/10 02:31:46;;;;;;;5.60;4.50;;;13.80;99.90;;;;;;6197267;28;20055;-76
2023/05/10 02:34:51;;;;;;;4.65;4.25;;;13.80;99.90;;;;;;6196572;28;20046;-76
2023/05/10 02:37:54;;;;;;;5.45;4.55;;;13.80;99.90;;;;;;6196870;28;20047;-76
2023/05/10 02:40:56;;;;;;;5.43;4.78;;;13.80;99.90;;;;;;6197192;28;20413;-76
2023/05/10 02:44:02;;;;;;;4.97;4.47;;;13.80;99.90;;;;;;6172606;28;20081;-76
2023/05/10 02:47:04;;;;;;;5.38;4.88;;;13.70;99.90;;;;;;6172208;28;20046;-76
2023/05/10 02:50:08;;;;;;;6.90;5.03;;;13.80;99.90;;;;;;6180493;28;20049;-76
2023/05/10 02:53:15;;;;;;;4.50;4.10;;;13.80;99.90;;;;;;6196471;28;20532;-76
2023/05/10 02:56:30;;;;;;;4.93;4.43;;;13.80;99.90;;;;;;6196099;28;20515;-76
2023/05/10 02:59:32;;;;;;;5.55;5.03;;;13.70;99.90;;;;;;6197364;28;20061;-76
2023/05/10 03:02:34;;;;;;;5.28;3.20;;;13.70;99.90;;;;;;6195671;28;20358;-76
2023/05/10 03:05:37;;;;;;;4.90;4.15;;;13.70;99.90;;;;;;6197125;28;20158;-77
2023/05/10 03:08:39;;;;;;;7.55;4.53;;;13.60;99.90;;;;;;6201328;28;20046;-76
2023/05/10 03:11:51;;;;;;;5.20;4.70;;;13.50;99.90;;;;;;6202086;28;20069;-76
2023/05/10 03:15:01;;;;;;;5.65;3.90;;;13.50;99.90;;;;;;6201053;28;20046;-76
2023/05/10 03:18:07;;;;;;;5.75;4.60;;;13.40;99.90;;;;;;6201441;28;20050;-76
2023/05/10 03:21:15;;;;;;;7.07;4.72;;;13.40;99.90;;;;;;6201028;28;20085;-76
2023/05/10 03:24:19;;;;;;;7.22;6.53;;;13.30;99.90;;;;;;6200701;28;20050;-76
2023/05/10 03:27:22;;;;;;;4.95;4.47;;;13.30;99.90;;;;;;6201532;28;20053;-76
2023/05/10 03:30:25;;;;;;;6.65;4.53;;;13.20;99.90;;;;;;6201005;28;20058;-76
2023/05/10 03:33:27;;;;;;;7.50;5.22;;;13.20;99.90;;;;;;6200856;28;20051;-77
2023/05/10 03:36:30;;;;;;;7.90;4.20;;;13.20;99.90;;;;;;6200739;28;20073;-77
2023/05/10 03:39:32;;;;;;;7.50;4.82;;;13.20;99.90;;;;;;6200680;28;20517;-77
2023/05/10 03:42:33;;;;;;;8.32;5.03;;;13.20;99.90;;;;;;6200658;28;20046;-77
2023/05/10 03:45:35;;;;;;;9.85;4.78;;;13.20;99.90;;;;;;6200674;28;20050;-77
2023/05/10 03:48:37;;;;;;;4.45;4.00;;;13.20;99.90;;;;;;6200759;28;20042;-77
2023/05/10 03:51:40;;;;;;;4.53;4.13;;;13.20;99.90;;;;;;6201289;28;20513;-77
2023/05/10 03:54:41;;;;;;;5.32;4.82;;;13.20;99.90;;;;;;6200057;28;20126;-77
2023/05/10 03:57:43;;;;;;;4.90;4.40;;;13.20;99.90;;;;;;6200843;28;20050;-77
2023/05/10 04:00:45;;;;;;;4.93;4.32;;;13.20;99.90;;;;;;6199425;28;20042;-77
2023/05/10 04:03:47;;;;;;;4.75;3.88;;;13.30;99.90;;;;;;6200488;28;20054;-76
2023/05/10 04:06:50;;;;;;;7.13;4.97;;;13.30;99.90;;;;;;6200238;28;20042;-77
2023/05/10 04:09:52;;;;;;;4.82;4.43;;;13.30;99.90;;;;;;6200160;28;20513;-77
2023/05/10 04:12:53;;;;;;;5.78;3.97;;;13.30;99.90;;;;;;6200581;28;20513;-77
2023/05/10 04:15:55;;;;;;;5.32;3.95;;;13.30;99.90;;;;;;6200310;28;20053;-77
2023/05/10 04:18:57;;;;;;;4.38;3.95;;;13.30;99.90;;;;;;6200675;28;20076;-77
2023/05/10 04:22:00;;;;;;;7.32;4.10;;;13.40;99.90;;;;;;6200234;28;20613;-77
2023/05/10 04:25:01;;;;;;;9.63;5.03;;;13.40;99.90;;;;;;6200588;28;20064;-77
2023/05/10 04:28:03;;;;;;;6.82;4.32;;;13.50;99.90;;;;;;6201238;28;20057;-77
2023/05/10 04:31:06;;;;;;;6.00;4.80;;;13.50;99.90;;;;;;6200385;28;20057;-77
2023/05/10 04:34:08;;;;;;;4.75;4.28;;;13.50;99.90;;;;;;6200187;28;20057;-77
2023/05/10 04:37:11;;;;;;;9.27;5.30;;;13.50;99.90;;;;;;6201211;28;20039;-77
2023/05/10 04:40:13;;;;;;;4.00;3.60;;;13.50;99.90;;;;;;6200031;28;20054;-77
2023/05/10 04:43:14;;;;;;;6.53;4.70;;;13.60;99.90;;;;;;6200497;28;20058;-77
2023/05/10 04:46:16;;;;;;;5.38;4.88;;;13.60;99.90;;;;;;6200210;28;20050;-77
2023/05/10 04:49:18;;;;;;;5.80;4.60;;;13.60;99.90;;;;;;6201815;28;20073;-77
2023/05/10 04:52:21;;;;;;;8.70;5.45;;;13.60;99.90;;;;;;6212209;28;20054;-77
2023/05/10 04:55:23;;;;;;;5.97;4.32;;;13.70;99.90;;;;;;6223327;28;20054;-77
2023/05/10 04:58:25;;;;;;;5.97;5.35;;;13.70;99.90;;;;;;6204898;28;20062;-77
2023/05/10 05:01:26;;;;;;;5.65;5.15;;;13.70;99.90;;;;;;6202258;28;20057;-77
2023/05/10 05:04:28;;;;;;;7.43;5.10;;;13.80;99.90;;;;;;6199209;28;20050;-76
2023/05/10 05:07:31;;;;;;;6.13;5.53;;;13.80;99.90;;;;;;6199093;28;20208;-77
2023/05/10 05:10:33;;;;;;;7.15;5.63;;;13.80;99.90;;;;;;6198084;28;20524;-77
2023/05/10 05:13:35;;;;;;;6.57;5.38;;;13.90;99.90;;;;;;6198600;28;20042;-77
2023/05/10 05:16:36;;;;;;;5.97;4.93;;;13.90;99.90;;;;;;6198907;28;20053;-77
2023/05/10 05:19:38;;;;;;;7.53;6.53;;;13.90;99.90;;;;;;6199203;28;20054;-77
2023/05/10 05:22:41;;;;;;;5.95;5.00;;;13.90;99.90;;;;;;6198849;28;20046;-77
2023/05/10 05:25:43;;;;;;;6.45;5.07;;;13.90;99.90;;;;;;6198257;28;20042;-77
2023/05/10 05:28:44;;;;;;;6.97;4.10;;;14.00;99.90;;;;;;6197062;28;20053;-77
2023/05/10 05:31:46;;;;;;;5.32;4.03;;;14.00;99.90;;;;;;6199024;28;20050;-77
2023/05/10 05:34:48;;;;;;;5.95;4.55;;;14.10;99.90;;;;;;6198447;28;20058;-77
2023/05/10 05:37:51;;;;;;;4.45;3.88;;;14.10;99.90;;;;;;6198472;28;20043;-77
2023/05/10 05:40:53;;;;;;;5.22;4.78;;;14.20;99.90;;;;;;6198307;28;20624;-77
2023/05/10 05:43:54;;;;;;;6.38;4.30;;;14.20;99.90;;;;;;6198618;28;20057;-77
2023/05/10 05:46:56;;;;;;;6.28;3.40;;;14.20;99.90;;;;;;6197731;28;20053;-77
2023/05/10 05:49:58;;;;;;;3.55;3.25;;;14.30;99.90;;;;;;6197792;28;20058;-77
2023/05/10 05:53:01;;;;;;;14.73;3.10;;;14.30;99.90;;;;;;6197718;28;20042;-77
2023/05/10 05:56:03;;;;;;;5.47;4.82;;;14.40;99.90;;;;;;6198053;28;20046;-77
2023/05/10 05:59:05;;;;;;;10.88;3.80;;;14.50;99.90;;;;;;6197286;28;20064;-77
2023/05/10 06:02:06;;;;;;;3.33;2.83;;;14.50;99.90;;;;;;6197325;28;20082;-77
2023/05/10 06:05:09;;;;;;;3.38;3.08;;;14.60;99.90;;;;;;6196399;28;20353;-77
2023/05/10 06:08:12;;;;;;;4.88;3.50;;;14.70;99.90;;;;;;6197741;28;20054;-77
2023/05/10 06:11:14;;;;;;;5.65;3.33;;;14.80;99.90;;;;;;6197657;28;20053;-77
2023/05/10 06:14:15;;;;;;;7.00;2.90;;;14.90;99.90;;;;;;6197315;28;20186;-77
2023/05/10 06:17:17;;;;;;;3.08;2.80;;;14.90;99.90;;;;;;6197454;28;20058;-77
2023/05/10 06:20:19;;;;;;;4.95;3.33;;;15.00;99.90;;;;;;6196986;28;20057;-77
2023/05/10 06:23:22;;;;;;;3.83;3.53;;;15.00;99.90;;;;;;6197065;28;20057;-77
2023/05/10 06:26:24;;;;;;;3.92;3.55;;;15.00;99.90;;;;;;6196821;28;20447;-77
2023/05/10 06:29:26;;;;;;;5.82;4.97;;;14.90;99.90;;;;;;6197404;28;20552;-77
2023/05/10 06:32:28;;;;;;;4.72;4.07;;;14.90;99.90;;;;;;6197438;28;20447;-77
2023/05/10 06:35:31;;;;;;;4.40;4.00;;;14.90;99.90;;;;;;6197386;28;20074;-77
2023/05/10 06:38:34;;;;;;;4.85;3.03;;;14.90;99.90;;;;;;6197204;28;20047;-77
2023/05/10 06:41:36;;;;;;;5.25;2.67;;;15.00;99.90;;;;;;6197971;28;20061;-77
2023/05/10 06:44:37;;;;;;;4.55;3.35;;;15.00;99.90;;;;;;6196928;28;20054;-77
2023/05/10 06:47:39;;;;;;;5.50;3.10;;;15.10;99.90;;;;;;6197442;28;20046;-77
2023/05/10 06:50:41;;;;;;;3.65;2.58;;;15.10;99.90;;;;;;6196394;28;20101;-77
2023/05/10 06:53:44;;;;;;;2.97;2.67;;;15.10;99.90;;;;;;6208202;28;20172;-77
2023/05/10 06:56:45;;;;;;;2.60;2.40;;;15.20;99.90;;;;;;6221860;28;20381;-77
2023/05/10 06:59:47;;;;;;;5.78;2.63;;;15.20;99.90;;;;;;6223350;28;20519;-77
2023/05/10 07:02:49;;;;;;;2.72;2.22;;;15.40;99.90;;;;;;6223759;28;20424;-77
2023/05/10 07:05:50;;;;;;;3.50;2.30;;;15.60;99.90;;;;;;6222194;28;20045;-77
2023/05/10 07:08:53;;;;;;;4.28;1.98;;;15.90;99.90;;;;;;6223773;28;20052;-77
2023/05/10 07:11:57;;;;;;;4.53;1.70;;;16.10;99.90;;;;;;6226886;28;20061;-77
2023/05/10 07:14:58;;;;;;;3.58;1.80;;;16.20;99.90;;;;;;6226899;28;20061;-78
2023/05/10 07:18:00;;;;;;;2.40;1.60;;;16.10;99.90;;;;;;6226212;28;20065;-77
2023/05/10 07:21:02;;;;;;;4.15;1.20;;;16.00;99.90;;;;;;6224363;28;20042;-77
2023/05/10 07:24:06;;;;;;;1.40;1.30;;;16.00;99.90;;;;;;6224120;28;20050;-77
2023/05/10 07:27:07;;;;;;;3.78;2.15;;;15.90;99.90;;;;;;6223604;28;20046;-78
2023/05/10 07:30:10;;;;;;;1.85;1.75;;;15.80;99.90;;;;;;6223801;28;20054;-77
2023/05/10 07:33:14;;;;;;;1.50;1.10;;;15.80;99.90;;;;;;6223848;28;20046;-77
2023/05/10 07:36:16;;;;;;;1.80;1.00;;;15.90;99.90;;;;;;6223561;28;20508;-77
2023/05/10 07:39:20;;;;;;;1.35;0.98;;;15.90;99.90;;;;;;6227528;28;20543;-77
2023/05/10 07:42:21;;;;;;;1.30;1.15;;;15.90;99.90;;;;;;6225120;28;20531;-77
2023/05/10 07:45:24;;;;;;;2.75;1.20;;;16.10;99.90;;;;;;6221077;28;20045;-77
2023/05/10 07:48:25;;;;;;;1.98;0.90;;;16.40;99.90;;;;;;6221995;28;20060;-77
2023/05/10 07:51:27;;;;;;;1.15;1.05;;;16.80;99.90;;;;;;6225095;28;20045;-77
2023/05/10 07:54:30;;;;;;;1.33;1.17;;;16.70;99.90;;;;;;6224777;28;20127;-78
2023/05/10 07:57:32;;;;;;;1.85;0.82;;;16.60;99.90;;;;;;6224844;28;20682;-78
2023/05/10 08:00:34;;;;;;;4.82;1.10;;;16.70;99.90;;;;;;6224834;28;20050;-77
2023/05/10 08:03:36;;;;;;;3.63;0.95;;;16.70;99.90;;;;;;6225463;28;20061;-77
2023/05/10 08:06:38;;;;;;;4.25;1.10;;;16.60;99.90;;;;;;6224665;28;20041;-77
2023/05/10 08:09:40;;;;;;;1.50;0.90;;;16.50;99.90;;;;;;6224627;28;20053;-77
2023/05/10 08:12:42;;;;;;;0.75;0.60;;;16.40;99.90;;;;;;6221805;28;20046;-78
2023/05/10 08:15:44;;;;;;;1.85;1.20;;;16.70;99.90;;;;;;6180578;28;20125;-78
2023/05/10 08:18:47;;;;;;;1.10;0.82;;;17.30;99.90;;;;;;6182504;28;21307;-78
2023/05/10 08:21:49;;;;;;;1.48;0.68;;;18.00;99.90;;;;;;6198211;28;20053;-78
2023/05/10 08:24:53;;;;;;;1.85;0.90;;;18.60;99.90;;;;;;6193897;28;20050;-78
2023/05/10 08:27:54;;;;;;;1.38;0.70;;;19.20;99.90;;;;;;6194383;28;20051;-78
2023/05/10 08:30:56;;;;;;;0.98;0.50;;;19.70;99.90;;;;;;6188959;28;20399;-78
2023/05/10 08:33:58;;;;;;;0.63;0.60;;;20.00;99.90;;;;;;6189588;28;20506;-80
2023/05/10 08:37:00;;;;;;;3.08;1.48;;;20.30;99.90;;;;;;6192691;28;20058;-80
2023/05/10 08:40:03;;;;;;;0.95;0.70;;;20.40;99.90;;;;;;6195927;28;20428;-78
2023/05/10 08:43:08;;;;;;;2.13;0.70;;;20.50;99.90;;;;;;6192605;28;20050;-78
2023/05/10 08:46:10;;;;;;;0.75;0.68;;;20.50;99.90;;;;;;6187084;28;20042;-79
2023/05/10 08:49:17;;;;;;;3.60;0.70;;;20.90;99.90;;;;;;6192947;28;20064;-79
2023/05/10 08:52:19;;;;;;;0.73;0.70;;;20.90;99.90;;;;;;6188470;28;20058;-78
2023/05/10 08:55:23;;;;;;;3.08;1.05;;;20.70;99.90;;;;;;6192539;28;20065;-78
2023/05/10 08:58:26;;;;;;;1.20;0.90;;;20.60;99.90;;;;;;6192097;28;20129;-79
2023/05/10 09:01:28;;;;;;;0.70;0.70;;;20.60;99.90;;;;;;6191492;28;20046;-78
2023/05/10 09:04:30;;;;;;;0.82;0.75;;;20.40;99.90;;;;;;6193210;28;20057;-79
2023/05/10 09:07:32;;;;;;;2.22;0.73;;;20.00;99.90;;;;;;6182501;28;20054;-79
2023/05/10 09:10:36;;;;;;;1.67;1.58;;;19.60;99.90;;;;;;6179058;28;20053;-79
2023/05/10 09:13:38;;;;;;;2.42;0.57;;;19.20;99.90;;;;;;6178095;28;20042;-82
2023/05/10 09:16:41;;;;;;;1.63;0.80;;;18.90;99.90;;;;;;6180837;28;20049;-79
2023/05/10 09:19:42;;;;;;;2.88;1.00;;;18.40;99.90;;;;;;6179491;28;20062;-78
2023/05/10 09:22:44;;;;;;;1.33;0.70;;;17.80;99.90;;;;;;6185190;28;20051;-79
2023/05/10 09:25:47;;;;;;;2.72;1.00;;;17.40;99.90;;;;;;6177407;28;20129;-78
2023/05/10 09:28:53;;;;;;;1.20;1.10;;;17.20;99.90;;;;;;6178860;28;20056;-80
2023/05/10 09:31:55;;;;;;;2.85;1.75;;;17.00;99.90;;;;;;6181252;28;20057;-78
2023/05/10 09:34:57;;;;;;;2.33;1.55;;;16.80;99.90;;;;;;6195230;28;20053;-78
2023/05/10 09:38:00;;;;;;;1.65;1.10;;;16.70;99.90;;;;;;6192131;28;20640;-80
2023/05/10 09:41:04;;;;;;;1.25;1.15;;;16.80;99.90;;;;;;6201447;28;20065;-78
2023/05/10 09:44:05;;;;;;;1.02;0.95;;;16.70;99.90;;;;;;6190213;28;20073;-78
2023/05/10 09:47:07;;;;;;;1.27;0.90;;;16.80;99.90;;;;;;6188680;28;20047;-78
2023/05/10 09:50:10;;;;;;;6.93;1.10;;;17.20;99.90;;;;;;6207318;23;20081;-80
2023/05/10 09:53:15;;;;;;;2.25;1.00;;;17.80;99.90;;;;;;6183758;28;21586;-79
2023/05/10 09:56:38;;;;;;;0.90;0.90;;;18.40;99.90;;;;;;6171612;28;20062;-78
2023/05/10 09:59:43;;;;;;;3.88;1.10;;;19.00;99.90;;;;;;6187816;28;20129;-78
2023/05/10 10:02:47;;;;;;;2.17;1.00;;;19.30;99.90;;;;;;6192472;28;20057;-81
2023/05/10 10:05:50;;;;;;;1.92;0.80;;;19.30;99.90;;;;;;6183639;28;20714;-78
2023/05/10 10:08:51;;;;;;;3.05;0.73;;;19.30;99.90;;;;;;6190172;28;20042;-81
2023/05/10 10:11:56;;;;;;;2.63;0.90;;;19.10;99.90;;;;;;6190865;28;20053;-79
2023/05/10 10:15:01;;;;;;;0.98;0.93;;;19.00;99.90;;;;;;6186240;28;20078;-79
2023/05/10 10:18:03;;;;;;;1.70;1.10;;;19.00;99.90;;;;;;6186481;28;20057;-81
2023/05/10 10:21:06;;;;;;;1.08;0.80;;;19.10;99.90;;;;;;6190001;28;20448;-79
2023/05/10 10:24:08;;;;;;;5.20;1.10;;;19.40;99.90;;;;;;6190271;28;20117;-78
2023/05/10 10:27:21;;;;;;;3.75;1.52;;;19.40;99.90;;;;;;6160537;28;20065;-78
2023/05/10 10:30:28;;;;;;;2.92;1.10;;;19.50;99.90;;;;;;6180256;28;20050;-79
2023/05/10 10:33:39;;;;;;;2.78;1.67;;;19.60;99.90;;;;;;6195961;28;20042;-80
2023/05/10 10:36:43;;;;;;;2.92;1.70;;;19.80;99.90;;;;;;6191467;28;20477;-79
2023/05/10 10:39:44;;;;;;;4.50;1.80;;;19.80;99.90;;;;;;6195321;28;20050;-80
2023/05/10 10:42:49;;;;;;;4.70;1.75;;;20.00;99.90;;;;;;6186115;28;20053;-77
2023/05/10 10:46:14;;;;;;;2.72;2.08;;;20.20;99.90;;;;;;6177205;28;20173;-77
2023/05/10 10:49:17;;;;;;;2.80;1.35;;;19.80;99.90;;;;;;6180033;28;20058;-77
2023/05/10 10:52:28;;;;;;;3.47;1.42;;;19.20;99.90;;;;;;6178525;28;20050;-78
2023/05/10 10:55:30;;;;;;;4.03;1.45;;;19.00;99.90;;;;;;6181877;28;20099;-77
2023/05/10 10:58:34;;;;;;;1.20;1.10;;;18.90;99.90;;;;;;6181178;28;20073;-78
2023/05/10 11:01:36;;;;;;;6.70;1.77;;;18.80;99.90;;;;;;6187466;28;20057;-78
2023/05/10 11:04:46;;;;;;;1.85;1.20;;;19.00;99.90;;;;;;6181804;28;20046;-78
2023/05/10 11:07:54;;;;;;;2.90;1.33;;;18.90;99.90;;;;;;6192156;28;20061;-79
2023/05/10 11:11:10;;;;;;;4.22;2.63;;;18.90;99.90;;;;;;6195235;28;20053;-80
2023/05/10 11:14:13;;;;;;;6.40;1.23;;;18.80;99.90;;;;;;6189843;28;20055;-79
2023/05/10 11:17:25;;;;;;;3.20;1.85;;;18.60;99.90;;;;;;6194114;28;20042;-78
2023/05/10 11:20:33;;;;;;;3.10;1.73;;;18.40;99.90;;;;;;6185729;28;20422;-78
2023/05/10 11:23:50;;;;;;;7.30;1.35;;;18.40;99.90;;;;;;6191762;28;20136;-77
2023/05/10 11:26:52;;;;;;;6.18;1.83;;;18.40;99.90;;;;;;6190635;28;20055;-78
2023/05/10 11:29:55;;;;;;;3.17;1.25;;;18.20;99.90;;;;;;6197845;28;20050;-78
2023/05/10 11:32:57;;;;;;;1.42;1.33;;;18.00;99.90;;;;;;6194431;28;20057;-77
2023/05/10 11:35:58;;;;;;;4.90;0.93;;;18.00;99.90;;;;;;6193820;28;20126;-78
2023/05/10 11:39:00;;;;;;;1.23;1.10;;;18.00;99.90;;;;;;6194049;28;20042;-78
2023/05/10 11:42:02;;;;;;;2.70;0.95;;;18.10;99.90;;;;;;6192113;28;20053;-78
2023/05/10 11:45:06;;;;;;;2.60;0.80;;;18.10;99.90;;;;;;6185919;28;20408;-78
2023/05/10 11:48:08;;;;;;;2.03;0.80;;;18.10;99.90;;;;;;6187141;28;20057;-78
2023/05/10 11:51:11;;;;;;;3.10;0.68;;;18.10;99.90;;;;;;6190680;28;20062;-79
2023/05/10 11:54:13;;;;;;;8.43;7.68;;;18.20;99.90;;;;;;6202113;28;20058;-78
2023/05/10 11:57:14;;;;;;;2.63;1.20;;;18.40;99.90;;;;;;6196704;28;20065;-80
2023/05/10 12:03:28;;;;;;;5.03;4.63;;;19.00;99.90;;;;;;6843313;22;20051;-79
2023/05/10 12:06:31;;;;;;;4.22;1.10;;;19.30;99.90;;;;;;6242967;28;20046;-79
2023/05/10 12:09:33;;;;;;;2.55;1.02;;;19.60;99.90;;;;;;6240586;28;20588;-79
2023/05/10 12:12:39;;;;;;;4.20;3.42;;;19.80;99.90;;;;;;6253215;28;20081;-80
2023/05/10 12:15:41;;;;;;;6.90;4.68;;;20.10;99.90;;;;;;6255970;28;20064;-79
2023/05/10 12:18:45;;;;;;;6.55;4.18;;;20.00;99.90;;;;;;6255460;28;20052;-80
2023/05/10 12:21:46;;;;;;;10.55;8.68;;;20.30;99.90;;;;;;6252446;28;20047;-79
2023/05/10 12:24:48;;;;;;;9.23;8.27;;;20.40;99.90;;;;;;6241448;28;20041;-79
2023/05/10 12:27:52;;;;;;;4.22;1.30;;;20.50;99.90;;;;;;6249946;28;20034;-79
2023/05/10 12:30:54;;;;;;;5.05;1.90;;;20.70;99.90;;;;;;6250401;28;20057;-79
2023/05/10 12:33:57;;;;;;;13.00;9.63;;;20.70;99.90;;;;;;6254190;28;20111;-79
2023/05/10 12:36:59;;;;;;;5.53;4.65;;;20.70;99.90;;;;;;6253420;28;20041;-80
2023/05/10 12:40:01;;;;;;;8.73;5.60;;;20.90;99.90;;;;;;6262629;28;20526;-77
2023/05/10 12:43:03;;;;;;;6.50;5.88;;;20.90;99.90;;;;;;6261908;28;20041;-77
2023/05/10 12:46:08;;;;;;;8.90;4.63;;;20.70;99.90;;;;;;6264324;28;20045;-78
2023/05/10 12:49:11;;;;;;;5.82;4.95;;;20.60;99.90;;;;;;6263697;28;20104;-78
2023/05/10 12:52:13;;;;;;;6.35;4.18;;;20.80;99.90;;;;;;6262936;28;20056;-79
2023/05/10 12:55:15;;;;;;;2.70;2.50;;;20.90;99.90;;;;;;6263297;28;20057;-78
2023/05/10 12:58:16;;;;;;;2.25;1.67;;;21.10;99.90;;;;;;6265010;28;20056;-78
2023/05/10 13:01:18;;;;;;;2.60;2.00;;;21.10;99.60;;;;;;6263652;28;20488;-78
2023/05/10 13:04:21;;;;;;;11.55;7.32;;;21.00;98.80;;;;;;6265759;28;20496;-78
2023/05/10 13:07:23;;;;;;;7.53;5.50;;;20.90;97.90;;;;;;6265055;28;20089;-79
2023/05/10 13:10:25;;;;;;;4.43;3.95;;;20.80;97.60;;;;;;6255323;28;20050;-78
2023/05/10 13:13:26;;;;;;;4.40;3.15;;;20.80;97.20;;;;;;6259970;28;20049;-78
2023/05/10 13:16:28;;;;;;;4.53;4.10;;;20.70;97.40;;;;;;6259937;28;20049;-80
2023/05/10 13:19:31;;;;;;;21.00;2.78;;;20.80;97.60;;;;;;6261817;28;20304;-79
2023/05/10 13:22:33;;;;;;;1.33;1.02;;;20.80;96.60;;;;;;6247942;28;20045;-78
2023/05/10 13:25:35;;;;;;;1.60;0.75;;;20.90;96.60;;;;;;6249818;28;20049;-77
2023/05/10 13:28:38;;;;;;;2.60;0.85;;;20.90;96.40;;;;;;6250522;28;20073;-78
2023/05/10 13:31:40;;;;;;;0.75;0.55;;;20.90;96.10;;;;;;6252107;28;20057;-77
2023/05/10 13:34:43;;;;;;;1.65;1.27;;;21.20;95.70;;;;;;6253922;28;20337;-78
2023/05/10 13:37:44;;;;;;;4.88;0.90;;;21.60;95.00;;;;;;6253004;28;20057;-79
2023/05/10 13:40:46;;;;;;;8.98;2.25;;;21.60;93.90;;;;;;6251723;28;20053;-78
2023/05/10 13:43:48;;;;;;;1.20;0.70;;;21.50;93.10;;;;;;6261918;28;20060;-78
2023/05/10 13:46:54;;;;;;;3.15;2.88;;;21.40;92.60;;;;;;6258265;28;20045;-77
2023/05/10 13:49:57;;;;;;;7.35;6.70;;;21.30;92.40;;;;;;6261918;28;20143;-78
2023/05/10 13:52:59;;;;;;;5.95;4.13;;;21.30;92.00;;;;;;6263013;28;20055;-78
2023/05/10 13:56:02;;;;;;;0.90;0.73;;;21.20;91.50;;;;;;6262880;28;20045;-78
2023/05/10 13:59:03;;;;;;;2.33;1.08;;;21.00;91.10;;;;;;6262439;28;20045;-78
2023/05/10 14:02:05;;;;;;;12.07;10.18;;;20.30;91.20;;;;;;6263165;28;20041;-78
2023/05/10 14:05:08;;;;;;;4.65;3.80;;;19.80;91.50;;;;;;6262084;28;20116;-78
2023/05/10 14:08:10;;;;;;;1.85;0.85;;;19.50;92.10;;;;;;6262475;28;20124;-78
2023/05/10 14:11:12;;;;;;;1.45;1.35;;;19.30;92.30;;;;;;6260562;28;20065;-77
2023/05/10 14:14:14;;;;;;;1.52;0.90;;;19.10;92.80;;;;;;6261524;28;20045;-78
2023/05/10 14:17:16;;;;;;;0.93;0.80;;;19.00;93.00;;;;;;6263628;28;20051;-78
2023/05/10 14:20:19;;;;;;;0.82;0.82;;;18.90;93.30;;;;;;6260905;28;20057;-78
2023/05/10 14:23:23;;;;;;;2.08;1.00;;;18.80;93.30;;;;;;6262682;28;20056;-78
2023/05/10 14:26:26;;;;;;;2.38;1.00;;;18.90;93.50;;;;;;6262908;28;20049;-78
2023/05/10 14:29:27;;;;;;;1.90;0.73;;;19.10;94.00;;;;;;6263601;28;20053;-78
2023/05/10 14:32:29;;;;;;;3.38;0.47;;;19.90;93.10;;;;;;6265190;28;20072;-78
2023/05/10 14:35:32;;;;;;;0.70;0.70;;;20.30;91.90;;;;;;6263370;28;20060;-78
2023/05/10 14:38:34;;;;;;;4.70;1.00;;;20.40;91.30;;;;;;6264223;28;20109;-79
2023/05/10 14:41:36;;;;;;;1.48;0.77;;;20.60;91.30;;;;;;6263386;28;20048;-79
2023/05/10 14:44:37;;;;;;;0.85;0.60;;;20.70;91.30;;;;;;6264152;28;20046;-79
2023/05/10 14:47:39;;;;;;;3.55;0.88;;;21.10;90.80;;;;;;6264326;28;20049;-78
2023/05/10 14:50:42;;;;;;;1.55;0.65;;;21.50;90.20;;;;;;6264592;28;20055;-78
2023/05/10 14:53:44;;;;;;;0.50;0.50;;;21.60;87.50;;;;;;6264073;28;20064;-78
2023/05/10 14:56:45;;;;;;;1.95;0.70;;;21.50;87.70;;;;;;6264359;28;20128;-78
2023/05/10 14:59:47;;;;;;;1.20;1.15;;;21.30;87.40;;;;;;6262555;28;20069;-79
2023/05/10 15:02:49;;;;;;;1.30;0.50;;;21.40;86.90;;;;;;6253077;28;20065;-79
2023/05/10 15:05:52;;;;;;;0.63;0.57;;;21.00;86.70;;;;;;6254490;28;20045;-79
2023/05/10 15:08:54;;;;;;;2.90;0.77;;;20.80;87.70;;;;;;6255539;28;20045;-79
2023/05/10 15:11:56;;;;;;;5.03;2.60;;;20.70;88.10;;;;;;6254547;28;20514;-79
2023/05/10 15:14:58;;;;;;;2.50;1.85;;;20.50;88.50;;;;;;6254842;28;20045;-79
2023/05/10 15:17:59;;;;;;;1.55;1.20;;;20.30;88.70;;;;;;6253797;28;20041;-79
2023/05/10 15:21:03;;;;;;;4.03;2.45;;;19.90;88.80;;;;;;6254330;28;20060;-79
2023/05/10 15:24:05;;;;;;;2.40;1.95;;;19.60;90.10;;;;;;6252519;28;20554;-78
2023/05/10 15:27:06;;;;;;;1.55;0.70;;;19.50;90.50;;;;;;6253234;28;20049;-78
2023/05/10 15:30:09;;;;;;;5.03;3.30;;;19.40;90.60;;;;;;6254085;28;20187;-79
2023/05/10 15:33:11;;;;;;;4.95;0.65;;;19.40;90.90;;;;;;6253746;28;20416;-78
2023/05/10 15:36:14;;;;;;;0.57;0.57;;;19.30;91.20;;;;;;6254118;28;20057;-78
2023/05/10 15:39:15;;;;;;;4.68;3.55;;;19.20;91.10;;;;;;6256841;28;20055;-78
2023/05/10 15:42:17;;;;;;;12.30;11.07;;;19.00;91.40;;;;;;6254860;28;20057;-80
2023/05/10 15:45:19;;;;;;;1.15;1.05;;;18.80;91.70;;;;;;6248589;28;20053;-80
2023/05/10 15:48:21;;;;;;;1.60;0.65;;;18.80;91.60;;;;;;6243667;28;20049;-78
2023/05/10 15:51:24;;;;;;;4.15;0.73;;;18.60;91.20;;;;;;6243935;28;20060;-79
2023/05/10 15:54:25;;;;;;;0.88;0.82;;;18.60;91.20;;;;;;6255703;28;20052;-78